sensor_id;sensor_type;location;lat;lon;timestamp;temperature;humidity
35085;SHT85;21267;51.032;6.998;2023-02-01T00:00:12;6.96;89.01
35085;SHT85;21267;51.032;6.998;2023-02-01T00:02:53;6.93;88.97
35085;SHT85;21267;51.032;6.998;2023-02-01T00:05:21;6.97;88.97
35085;SHT85;21267;51.032;6.998;2023-02-01T00:07:50;6.94;88.88
35085;SHT85;21267;51.032;6.998;2023-02-01T00:10:17;6.97;88.60
35085;SHT85;21267;51.032;6.998;2023-02-01T00:12:44;7.01;88.50
35085;SHT85;21267;51.032;6.998;2023-02-01T00:15:12;6.96;88.79
35085;SHT85;21267;51.032;6.998;2023-02-01T00:17:54;7.03;89.18
35085;SHT85;21267;51.032;6.998;2023-02-01T00:20:22;7.01;89.50
35085;SHT85;21267;51.032;6.998;2023-02-01T00:23:02;6.99;89.91
35085;SHT85;21267;51.032;6.998;2023-02-01T00:25:29;6.99;90.31
35085;SHT85;21267;51.032;6.998;2023-02-01T00:27:55;6.93;90.72
35085;SHT85;21267;51.032;6.998;2023-02-01T00:30:25;7.00;90.79
35085;SHT85;21267;51.032;6.998;2023-02-01T00:32:54;6.92;90.93
35085;SHT85;21267;51.032;6.998;2023-02-01T00:35:20;7.00;90.68
35085;SHT85;21267;51.032;6.998;2023-02-01T00:37:47;6.97;90.67
35085;SHT85;21267;51.032;6.998;2023-02-01T00:40:13;6.99;90.61
35085;SHT85;21267;51.032;6.998;2023-02-01T00:42:41;6.94;90.44
35085;SHT85;21267;51.032;6.998;2023-02-01T00:45:15;6.94;90.17
35085;SHT85;21267;51.032;6.998;2023-02-01T00:47:44;6.86;90.35
35085;SHT85;21267;51.032;6.998;2023-02-01T00:50:24;6.92;89.79
35085;SHT85;21267;51.032;6.998;2023-02-01T00:52:51;6.83;89.57
35085;SHT85;21267;51.032;6.998;2023-02-01T00:55:25;6.84;89.20
35085;SHT85;21267;51.032;6.998;2023-02-01T01:01:41;6.73;88.25
35085;SHT85;21267;51.032;6.998;2023-02-01T01:04:09;6.82;87.79
35085;SHT85;21267;51.032;6.998;2023-02-01T01:06:49;6.71;87.58
35085;SHT85;21267;51.032;6.998;2023-02-01T01:09:20;6.68;87.28
35085;SHT85;21267;51.032;6.998;2023-02-01T01:12:08;6.61;86.83
35085;SHT85;21267;51.032;6.998;2023-02-01T01:14:36;6.65;85.70
35085;SHT85;21267;51.032;6.998;2023-02-01T01:17:16;6.72;85.11
35085;SHT85;21267;51.032;6.998;2023-02-01T01:19:49;6.69;84.84
35085;SHT85;21267;51.032;6.998;2023-02-01T01:22:21;6.69;84.68
35085;SHT85;21267;51.032;6.998;2023-02-01T01:24:56;6.66;84.03
35085;SHT85;21267;51.032;6.998;2023-02-01T01:27:35;6.72;83.49
35085;SHT85;21267;51.032;6.998;2023-02-01T01:30:02;6.66;83.50
35085;SHT85;21267;51.032;6.998;2023-02-01T01:32:39;6.65;83.21
35085;SHT85;21267;51.032;6.998;2023-02-01T01:35:07;6.59;83.29
35085;SHT85;21267;51.032;6.998;2023-02-01T01:37:36;6.52;83.59
35085;SHT85;21267;51.032;6.998;2023-02-01T01:40:16;6.56;83.46
35085;SHT85;21267;51.032;6.998;2023-02-01T01:42:46;6.56;83.38
35085;SHT85;21267;51.032;6.998;2023-02-01T01:45:34;6.44;83.82
35085;SHT85;21267;51.032;6.998;2023-02-01T01:48:28;6.53;83.22
35085;SHT85;21267;51.032;6.998;2023-02-01T01:51:10;6.44;83.66
35085;SHT85;21267;51.032;6.998;2023-02-01T01:53:50;6.35;83.95
35085;SHT85;21267;51.032;6.998;2023-02-01T01:56:21;6.34;83.89
35085;SHT85;21267;51.032;6.998;2023-02-01T01:58:54;6.34;83.79
35085;SHT85;21267;51.032;6.998;2023-02-01T02:01:24;6.36;83.60
35085;SHT85;21267;51.032;6.998;2023-02-01T02:04:02;6.24;84.12
35085;SHT85;21267;51.032;6.998;2023-02-01T02:06:57;6.24;84.24
35085;SHT85;21267;51.032;6.998;2023-02-01T02:09:37;6.28;84.03
35085;SHT85;21267;51.032;6.998;2023-02-01T02:12:26;6.29;83.88
35085;SHT85;21267;51.032;6.998;2023-02-01T02:15:17;6.31;83.83
35085;SHT85;21267;51.032;6.998;2023-02-01T02:18:11;6.32;83.64
35085;SHT85;21267;51.032;6.998;2023-02-01T02:21:14;6.35;83.87
35085;SHT85;21267;51.032;6.998;2023-02-01T02:38:49;6.35;83.86
35085;SHT85;21267;51.032;6.998;2023-02-01T02:41:32;6.41;83.59
35085;SHT85;21267;51.032;6.998;2023-02-01T02:44:45;6.42;83.56
35085;SHT85;21267;51.032;6.998;2023-02-01T02:48:02;6.45;83.48
35085;SHT85;21267;51.032;6.998;2023-02-01T02:57:07;6.48;83.26
35085;SHT85;21267;51.032;6.998;2023-02-01T02:59:59;6.45;83.28
35085;SHT85;21267;51.032;6.998;2023-02-01T03:02:50;6.44;83.23
35085;SHT85;21267;51.032;6.998;2023-02-01T03:05:52;6.49;83.41
35085;SHT85;21267;51.032;6.998;2023-02-01T03:11:53;6.49;83.64
35085;SHT85;21267;51.032;6.998;2023-02-01T03:14:53;6.53;83.92
35085;SHT85;21267;51.032;6.998;2023-02-01T03:17:41;6.46;84.31
35085;SHT85;21267;51.032;6.998;2023-02-01T03:20:43;6.48;84.70
35085;SHT85;21267;51.032;6.998;2023-02-01T03:23:37;6.44;85.25
35085;SHT85;21267;51.032;6.998;2023-02-01T03:26:22;6.35;85.65
35085;SHT85;21267;51.032;6.998;2023-02-01T03:29:35;6.39;85.79
35085;SHT85;21267;51.032;6.998;2023-02-01T03:32:18;6.44;85.92
35085;SHT85;21267;51.032;6.998;2023-02-01T03:34:52;6.36;86.20
35085;SHT85;21267;51.032;6.998;2023-02-01T03:40:24;6.34;86.53
35085;SHT85;21267;51.032;6.998;2023-02-01T03:43:19;6.48;86.41
35085;SHT85;21267;51.032;6.998;2023-02-01T03:45:57;6.42;86.60
35085;SHT85;21267;51.032;6.998;2023-02-01T03:48:40;6.44;86.14
35085;SHT85;21267;51.032;6.998;2023-02-01T03:51:21;6.42;86.21
35085;SHT85;21267;51.032;6.998;2023-02-01T03:54:21;6.44;86.07
35085;SHT85;21267;51.032;6.998;2023-02-01T03:57:03;6.48;86.01
35085;SHT85;21267;51.032;6.998;2023-02-01T03:59:33;6.55;85.21
35085;SHT85;21267;51.032;6.998;2023-02-01T04:02:01;6.56;85.23
35085;SHT85;21267;51.032;6.998;2023-02-01T04:04:37;6.45;85.64
35085;SHT85;21267;51.032;6.998;2023-02-01T04:07:10;6.52;85.29
35085;SHT85;21267;51.032;6.998;2023-02-01T04:09:39;6.50;85.40
35085;SHT85;21267;51.032;6.998;2023-02-01T04:12:20;6.49;85.08
35085;SHT85;21267;51.032;6.998;2023-02-01T04:14:57;6.46;85.22
35085;SHT85;21267;51.032;6.998;2023-02-01T04:17:49;6.46;84.82
35085;SHT85;21267;51.032;6.998;2023-02-01T04:20:28;6.48;84.57
35085;SHT85;21267;51.032;6.998;2023-02-01T04:22:58;6.48;84.72
35085;SHT85;21267;51.032;6.998;2023-02-01T04:25:32;6.46;84.67
35085;SHT85;21267;51.032;6.998;2023-02-01T04:28:12;6.46;84.62
35085;SHT85;21267;51.032;6.998;2023-02-01T04:30:55;6.52;84.13
35085;SHT85;21267;51.032;6.998;2023-02-01T04:33:22;6.45;84.55
35085;SHT85;21267;51.032;6.998;2023-02-01T04:36:10;6.48;84.14
35085;SHT85;21267;51.032;6.998;2023-02-01T04:38:51;6.50;84.05
35085;SHT85;21267;51.032;6.998;2023-02-01T04:41:27;6.39;84.08
35085;SHT85;21267;51.032;6.998;2023-02-01T04:43:53;6.41;84.06
35085;SHT85;21267;51.032;6.998;2023-02-01T04:46:34;6.41;83.89
35085;SHT85;21267;51.032;6.998;2023-02-01T04:49:10;6.28;84.04
35085;SHT85;21267;51.032;6.998;2023-02-01T04:51:41;6.29;84.15
35085;SHT85;21267;51.032;6.998;2023-02-01T04:54:09;6.28;84.08
35085;SHT85;21267;51.032;6.998;2023-02-01T04:56:55;6.17;84.28
35085;SHT85;21267;51.032;6.998;2023-02-01T04:59:41;6.18;84.33
35085;SHT85;21267;51.032;6.998;2023-02-01T05:02:10;6.17;84.06
35085;SHT85;21267;51.032;6.998;2023-02-01T05:04:41;6.14;84.04
35085;SHT85;21267;51.032;6.998;2023-02-01T05:07:12;6.18;84.11
35085;SHT85;21267;51.032;6.998;2023-02-01T05:09:42;6.20;83.89
35085;SHT85;21267;51.032;6.998;2023-02-01T05:12:26;6.14;84.00
35085;SHT85;21267;51.032;6.998;2023-02-01T05:15:29;6.20;83.93
35085;SHT85;21267;51.032;6.998;2023-02-01T05:18:05;6.20;83.85
35085;SHT85;21267;51.032;6.998;2023-02-01T05:20:49;6.15;83.82
35085;SHT85;21267;51.032;6.998;2023-02-01T05:23:19;6.15;84.01
35085;SHT85;21267;51.032;6.998;2023-02-01T05:25:46;6.04;84.21
35085;SHT85;21267;51.032;6.998;2023-02-01T05:28:30;5.98;84.37
35085;SHT85;21267;51.032;6.998;2023-02-01T05:30:58;5.97;84.44
35085;SHT85;21267;51.032;6.998;2023-02-01T05:33:47;5.97;84.39
35085;SHT85;21267;51.032;6.998;2023-02-01T05:36:34;5.91;84.55
35085;SHT85;21267;51.032;6.998;2023-02-01T05:39:02;5.89;84.53
35085;SHT85;21267;51.032;6.998;2023-02-01T05:41:43;5.86;84.40
35085;SHT85;21267;51.032;6.998;2023-02-01T05:44:31;5.83;84.36
35085;SHT85;21267;51.032;6.998;2023-02-01T05:47:04;5.89;84.34
35085;SHT85;21267;51.032;6.998;2023-02-01T05:49:57;5.90;83.86
35085;SHT85;21267;51.032;6.998;2023-02-01T05:52:41;5.89;83.96
35085;SHT85;21267;51.032;6.998;2023-02-01T05:55:10;5.89;83.83
35085;SHT85;21267;51.032;6.998;2023-02-01T05:58:01;5.93;83.86
35085;SHT85;21267;51.032;6.998;2023-02-01T06:00:38;5.86;83.93
35085;SHT85;21267;51.032;6.998;2023-02-01T06:03:14;5.83;83.97
35085;SHT85;21267;51.032;6.998;2023-02-01T06:05:49;5.89;83.92
35085;SHT85;21267;51.032;6.998;2023-02-01T06:08:21;5.84;83.90
35085;SHT85;21267;51.032;6.998;2023-02-01T06:10:57;5.93;83.62
35085;SHT85;21267;51.032;6.998;2023-02-01T06:13:38;5.78;84.04
35085;SHT85;21267;51.032;6.998;2023-02-01T06:16:29;5.77;84.00
35085;SHT85;21267;51.032;6.998;2023-02-01T06:19:08;5.69;84.28
35085;SHT85;21267;51.032;6.998;2023-02-01T06:21:48;5.78;83.85
35085;SHT85;21267;51.032;6.998;2023-02-01T06:24:21;5.82;83.75
35085;SHT85;21267;51.032;6.998;2023-02-01T06:26:54;5.78;83.94
35085;SHT85;21267;51.032;6.998;2023-02-01T06:29:52;5.78;83.90
35085;SHT85;21267;51.032;6.998;2023-02-01T06:32:26;5.83;83.78
35085;SHT85;21267;51.032;6.998;2023-02-01T06:34:53;5.82;83.67
35085;SHT85;21267;51.032;6.998;2023-02-01T06:37:24;5.80;83.96
35085;SHT85;21267;51.032;6.998;2023-02-01T06:39:55;5.86;83.74
35085;SHT85;21267;51.032;6.998;2023-02-01T06:42:26;5.84;83.69
35085;SHT85;21267;51.032;6.998;2023-02-01T06:45:03;5.95;83.62
35085;SHT85;21267;51.032;6.998;2023-02-01T06:47:53;5.95;83.49
35085;SHT85;21267;51.032;6.998;2023-02-01T06:50:21;5.94;83.51
35085;SHT85;21267;51.032;6.998;2023-02-01T06:54:00;5.93;83.64
35085;SHT85;21267;51.032;6.998;2023-02-01T06:56:32;5.97;83.75
35085;SHT85;21267;51.032;6.998;2023-02-01T06:59:15;5.89;83.69
35085;SHT85;21267;51.032;6.998;2023-02-01T07:01:50;5.98;83.64
35085;SHT85;21267;51.032;6.998;2023-02-01T07:04:29;5.95;83.56
35085;SHT85;21267;51.032;6.998;2023-02-01T07:07:03;5.95;83.70
35085;SHT85;21267;51.032;6.998;2023-02-01T07:09:31;5.95;83.87
35085;SHT85;21267;51.032;6.998;2023-02-01T07:12:13;5.98;83.97
35085;SHT85;21267;51.032;6.998;2023-02-01T07:14:41;5.94;83.62
35085;SHT85;21267;51.032;6.998;2023-02-01T07:17:22;5.90;83.95
35085;SHT85;21267;51.032;6.998;2023-02-01T07:19:51;5.90;84.00
35085;SHT85;21267;51.032;6.998;2023-02-01T07:22:55;6.03;83.81
35085;SHT85;21267;51.032;6.998;2023-02-01T07:25:40;5.98;83.84
35085;SHT85;21267;51.032;6.998;2023-02-01T07:28:31;6.00;83.67
35085;SHT85;21267;51.032;6.998;2023-02-01T07:33:41;5.95;84.16
35085;SHT85;21267;51.032;6.998;2023-02-01T07:36:24;5.93;84.17
35085;SHT85;21267;51.032;6.998;2023-02-01T07:39:05;5.91;84.10
35085;SHT85;21267;51.032;6.998;2023-02-01T07:41:57;5.97;84.16
35085;SHT85;21267;51.032;6.998;2023-02-01T07:44:33;5.95;84.09
35085;SHT85;21267;51.032;6.998;2023-02-01T07:47:03;5.94;84.33
35085;SHT85;21267;51.032;6.998;2023-02-01T07:49:53;5.94;84.13
35085;SHT85;21267;51.032;6.998;2023-02-01T07:52:45;6.00;84.41
35085;SHT85;21267;51.032;6.998;2023-02-01T07:55:41;5.97;84.21
35085;SHT85;21267;51.032;6.998;2023-02-01T07:58:19;5.98;84.25
35085;SHT85;21267;51.032;6.998;2023-02-01T08:00:57;5.94;84.15
35085;SHT85;21267;51.032;6.998;2023-02-01T08:04:12;6.00;84.14
35085;SHT85;21267;51.032;6.998;2023-02-01T08:07:10;5.95;84.15
35085;SHT85;21267;51.032;6.998;2023-02-01T08:09:39;5.98;84.43
35085;SHT85;21267;51.032;6.998;2023-02-01T08:12:07;5.93;84.28
35085;SHT85;21267;51.032;6.998;2023-02-01T08:14:34;5.93;84.38
35085;SHT85;21267;51.032;6.998;2023-02-01T08:17:08;5.93;84.12
35085;SHT85;21267;51.032;6.998;2023-02-01T08:19:36;5.93;84.26
35085;SHT85;21267;51.032;6.998;2023-02-01T08:22:06;5.97;84.24
35085;SHT85;21267;51.032;6.998;2023-02-01T08:24:44;5.97;84.35
35085;SHT85;21267;51.032;6.998;2023-02-01T08:27:20;5.97;84.23
35085;SHT85;21267;51.032;6.998;2023-02-01T08:29:47;5.89;84.39
35085;SHT85;21267;51.032;6.998;2023-02-01T08:32:16;6.00;84.38
35085;SHT85;21267;51.032;6.998;2023-02-01T08:35:03;5.95;84.38
35085;SHT85;21267;51.032;6.998;2023-02-01T08:37:35;5.97;84.52
35085;SHT85;21267;51.032;6.998;2023-02-01T08:40:06;6.05;84.36
35085;SHT85;21267;51.032;6.998;2023-02-01T08:42:37;5.98;84.16
35085;SHT85;21267;51.032;6.998;2023-02-01T08:45:26;6.04;84.17
35085;SHT85;21267;51.032;6.998;2023-02-01T08:47:58;6.14;83.99
35085;SHT85;21267;51.032;6.998;2023-02-01T08:50:34;6.15;83.92
35085;SHT85;21267;51.032;6.998;2023-02-01T08:53:09;6.13;83.95
35085;SHT85;21267;51.032;6.998;2023-02-01T08:55:40;6.20;83.91
35085;SHT85;21267;51.032;6.998;2023-02-01T08:58:07;6.20;83.87
35085;SHT85;21267;51.032;6.998;2023-02-01T09:00:48;6.25;83.52
35085;SHT85;21267;51.032;6.998;2023-02-01T09:03:15;6.22;83.76
35085;SHT85;21267;51.032;6.998;2023-02-01T09:06:03;6.25;83.42
35085;SHT85;21267;51.032;6.998;2023-02-01T09:08:31;6.26;83.48
35085;SHT85;21267;51.032;6.998;2023-02-01T09:11:08;6.22;83.43
35085;SHT85;21267;51.032;6.998;2023-02-01T09:13:36;6.21;83.34
35085;SHT85;21267;51.032;6.998;2023-02-01T09:16:03;6.25;83.34
35085;SHT85;21267;51.032;6.998;2023-02-01T09:18:30;6.31;83.33
35085;SHT85;21267;51.032;6.998;2023-02-01T09:20:57;6.21;83.44
35085;SHT85;21267;51.032;6.998;2023-02-01T09:23:24;6.25;83.33
35085;SHT85;21267;51.032;6.998;2023-02-01T09:25:50;6.25;83.47
35085;SHT85;21267;51.032;6.998;2023-02-01T09:28:18;6.24;83.50
35085;SHT85;21267;51.032;6.998;2023-02-01T09:30:46;6.24;83.41
35085;SHT85;21267;51.032;6.998;2023-02-01T09:33:16;6.29;83.27
35085;SHT85;21267;51.032;6.998;2023-02-01T09:35:44;6.26;83.35
35085;SHT85;21267;51.032;6.998;2023-02-01T09:38:11;6.34;83.32
35085;SHT85;21267;51.032;6.998;2023-02-01T09:40:42;6.31;83.33
35085;SHT85;21267;51.032;6.998;2023-02-01T09:48:38;6.39;83.23
35085;SHT85;21267;51.032;6.998;2023-02-01T09:51:20;6.45;83.22
35085;SHT85;21267;51.032;6.998;2023-02-01T09:54:05;6.45;83.21
35085;SHT85;21267;51.032;6.998;2023-02-01T09:57:02;6.44;83.00
35085;SHT85;21267;51.032;6.998;2023-02-01T09:59:49;6.44;82.92
35085;SHT85;21267;51.032;6.998;2023-02-01T10:02:23;6.42;82.94
35085;SHT85;21267;51.032;6.998;2023-02-01T10:04:57;6.41;83.16
35085;SHT85;21267;51.032;6.998;2023-02-01T10:10:01;6.46;82.90
35085;SHT85;21267;51.032;6.998;2023-02-01T10:26:32;6.77;82.01
35085;SHT85;21267;51.032;6.998;2023-02-01T10:29:02;6.90;81.68
35085;SHT85;21267;51.032;6.998;2023-02-01T10:31:33;7.27;80.86
35085;SHT85;21267;51.032;6.998;2023-02-01T10:34:22;7.35;80.48
35085;SHT85;21267;51.032;6.998;2023-02-01T10:37:00;7.55;79.88
35085;SHT85;21267;51.032;6.998;2023-02-01T10:39:28;7.61;79.49
35085;SHT85;21267;51.032;6.998;2023-02-01T10:41:56;7.81;78.90
35085;SHT85;21267;51.032;6.998;2023-02-01T10:44:28;8.23;78.19
35085;SHT85;21267;51.032;6.998;2023-02-01T10:46:55;8.65;76.60
35085;SHT85;21267;51.032;6.998;2023-02-01T10:49:58;8.36;76.83
35085;SHT85;21267;51.032;6.998;2023-02-01T10:52:39;8.67;76.57
35085;SHT85;21267;51.032;6.998;2023-02-01T10:58:14;8.60;76.61
35085;SHT85;21267;51.032;6.998;2023-02-01T11:03:22;8.38;76.99
35085;SHT85;21267;51.032;6.998;2023-02-01T11:05:56;8.16;77.73
35085;SHT85;21267;51.032;6.998;2023-02-01T11:08:22;8.07;77.94
35085;SHT85;21267;51.032;6.998;2023-02-01T11:11:00;7.87;78.21
35085;SHT85;21267;51.032;6.998;2023-02-01T11:13:32;7.64;78.71
35085;SHT85;21267;51.032;6.998;2023-02-01T11:16:04;7.68;78.89
35085;SHT85;21267;51.032;6.998;2023-02-01T11:18:35;7.45;79.23
35085;SHT85;21267;51.032;6.998;2023-02-01T11:21:04;7.58;79.14
35085;SHT85;21267;51.032;6.998;2023-02-01T11:23:33;7.59;78.94
35085;SHT85;21267;51.032;6.998;2023-02-01T11:28:47;7.72;78.67
35085;SHT85;21267;51.032;6.998;2023-02-01T11:31:16;7.54;79.08
35085;SHT85;21267;51.032;6.998;2023-02-01T11:33:53;7.64;78.95
35085;SHT85;21267;51.032;6.998;2023-02-01T11:36:26;7.78;78.75
35085;SHT85;21267;51.032;6.998;2023-02-01T11:42:13;7.97;78.32
35085;SHT85;21267;51.032;6.998;2023-02-01T11:44:43;7.96;78.27
35085;SHT85;21267;51.032;6.998;2023-02-01T11:47:39;7.83;78.28
35085;SHT85;21267;51.032;6.998;2023-02-01T11:50:16;7.83;78.61
35085;SHT85;21267;51.032;6.998;2023-02-01T12:06:59;7.61;79.01
35085;SHT85;21267;51.032;6.998;2023-02-01T12:12:27;7.75;78.85
35085;SHT85;21267;51.032;6.998;2023-02-01T12:18:00;7.76;79.26
35085;SHT85;21267;51.032;6.998;2023-02-01T12:26:36;7.79;79.09
35085;SHT85;21267;51.032;6.998;2023-02-01T12:38:11;7.85;79.03
35085;SHT85;21267;51.032;6.998;2023-02-01T12:43:38;7.78;78.95
35085;SHT85;21267;51.032;6.998;2023-02-01T12:46:16;7.82;78.86
35085;SHT85;21267;51.032;6.998;2023-02-01T12:51:38;7.76;79.03
35085;SHT85;21267;51.032;6.998;2023-02-01T12:56:51;7.73;78.98
35085;SHT85;21267;51.032;6.998;2023-02-01T12:59:26;7.79;78.74
35085;SHT85;21267;51.032;6.998;2023-02-01T13:02:11;7.72;79.22
35085;SHT85;21267;51.032;6.998;2023-02-01T13:05:02;7.75;79.39
35085;SHT85;21267;51.032;6.998;2023-02-01T13:07:45;7.68;79.52
35085;SHT85;21267;51.032;6.998;2023-02-01T13:10:26;7.66;79.83
35085;SHT85;21267;51.032;6.998;2023-02-01T13:15:47;7.81;78.76
35085;SHT85;21267;51.032;6.998;2023-02-01T13:18:20;7.87;78.49
35085;SHT85;21267;51.032;6.998;2023-02-01T13:20:59;7.85;78.65
35085;SHT85;21267;51.032;6.998;2023-02-01T13:23:37;7.87;78.32
35085;SHT85;21267;51.032;6.998;2023-02-01T13:26:05;7.92;78.45
35085;SHT85;21267;51.032;6.998;2023-02-01T13:29:04;7.90;78.26
35085;SHT85;21267;51.032;6.998;2023-02-01T13:42:51;7.83;79.32
35085;SHT85;21267;51.032;6.998;2023-02-01T13:45:22;7.89;79.09
35085;SHT85;21267;51.032;6.998;2023-02-01T13:47:51;7.86;79.32
35085;SHT85;21267;51.032;6.998;2023-02-01T13:52:55;7.96;78.43
35085;SHT85;21267;51.032;6.998;2023-02-01T13:55:26;8.03;78.40
35085;SHT85;21267;51.032;6.998;2023-02-01T13:58:33;7.99;78.27
35085;SHT85;21267;51.032;6.998;2023-02-01T14:03:55;8.02;78.14
35085;SHT85;21267;51.032;6.998;2023-02-01T14:11:39;8.10;77.69
35085;SHT85;21267;51.032;6.998;2023-02-01T14:19:37;8.12;77.35
35085;SHT85;21267;51.032;6.998;2023-02-01T14:24:55;8.14;77.17
35085;SHT85;21267;51.032;6.998;2023-02-01T14:27:34;8.23;76.82
35085;SHT85;21267;51.032;6.998;2023-02-01T14:30:07;8.24;76.99
35085;SHT85;21267;51.032;6.998;2023-02-01T14:32:39;8.24;76.87
35085;SHT85;21267;51.032;6.998;2023-02-01T14:35:19;8.24;76.82
35085;SHT85;21267;51.032;6.998;2023-02-01T14:37:50;8.24;76.42
35085;SHT85;21267;51.032;6.998;2023-02-01T14:40:25;8.26;76.59
35085;SHT85;21267;51.032;6.998;2023-02-01T14:42:53;8.29;76.50
35085;SHT85;21267;51.032;6.998;2023-02-01T14:50:43;8.24;76.42
35085;SHT85;21267;51.032;6.998;2023-02-01T14:53:32;8.31;76.39
35085;SHT85;21267;51.032;6.998;2023-02-01T14:56:12;8.34;76.41
35085;SHT85;21267;51.032;6.998;2023-02-01T14:58:59;8.38;76.33
35085;SHT85;21267;51.032;6.998;2023-02-01T15:04:10;8.37;76.54
35085;SHT85;21267;51.032;6.998;2023-02-01T15:09:45;8.30;76.64
35085;SHT85;21267;51.032;6.998;2023-02-01T15:14:48;8.34;76.73
35085;SHT85;21267;51.032;6.998;2023-02-01T15:17:30;8.34;76.79
35085;SHT85;21267;51.032;6.998;2023-02-01T15:22:54;8.33;77.20
35085;SHT85;21267;51.032;6.998;2023-02-01T15:25:28;8.22;77.89
35085;SHT85;21267;51.032;6.998;2023-02-01T15:27:56;8.20;78.50
35085;SHT85;21267;51.032;6.998;2023-02-01T15:30:26;8.23;78.03
35085;SHT85;21267;51.032;6.998;2023-02-01T15:35:48;8.26;77.63
35085;SHT85;21267;51.032;6.998;2023-02-01T15:41:34;8.27;77.62
35085;SHT85;21267;51.032;6.998;2023-02-01T15:46:34;8.30;77.33
35085;SHT85;21267;51.032;6.998;2023-02-01T15:49:03;8.36;76.91
35085;SHT85;21267;51.032;6.998;2023-02-01T15:51:32;8.29;77.14
35085;SHT85;21267;51.032;6.998;2023-02-01T15:54:05;8.34;76.98
35085;SHT85;21267;51.032;6.998;2023-02-01T15:56:39;8.36;76.88
35085;SHT85;21267;51.032;6.998;2023-02-01T15:59:17;8.33;77.00
35085;SHT85;21267;51.032;6.998;2023-02-01T16:01:45;8.34;76.95
35085;SHT85;21267;51.032;6.998;2023-02-01T16:04:29;8.31;77.09
35085;SHT85;21267;51.032;6.998;2023-02-01T16:07:03;8.29;77.04
35085;SHT85;21267;51.032;6.998;2023-02-01T16:09:52;8.34;77.14
35085;SHT85;21267;51.032;6.998;2023-02-01T16:12:55;8.30;77.14
35085;SHT85;21267;51.032;6.998;2023-02-01T16:15:27;8.41;77.02
35085;SHT85;21267;51.032;6.998;2023-02-01T16:17:57;8.30;77.17
35085;SHT85;21267;51.032;6.998;2023-02-01T16:20:32;8.44;77.22
35085;SHT85;21267;51.032;6.998;2023-02-01T16:23:02;8.38;76.93
35085;SHT85;21267;51.032;6.998;2023-02-01T16:25:46;8.34;77.15
35085;SHT85;21267;51.032;6.998;2023-02-01T16:28:14;8.38;76.95
35085;SHT85;21267;51.032;6.998;2023-02-01T16:30:41;8.34;77.18
35085;SHT85;21267;51.032;6.998;2023-02-01T16:33:22;8.40;77.31
35085;SHT85;21267;51.032;6.998;2023-02-01T16:35:50;8.36;77.28
35085;SHT85;21267;51.032;6.998;2023-02-01T16:38:19;8.38;77.31
35085;SHT85;21267;51.032;6.998;2023-02-01T16:40:52;8.40;77.56
35085;SHT85;21267;51.032;6.998;2023-02-01T16:43:22;8.33;77.85
35085;SHT85;21267;51.032;6.998;2023-02-01T16:46:02;8.29;78.15
35085;SHT85;21267;51.032;6.998;2023-02-01T16:48:31;8.31;78.37
35085;SHT85;21267;51.032;6.998;2023-02-01T16:51:15;8.29;78.77
35085;SHT85;21267;51.032;6.998;2023-02-01T16:53:46;8.24;79.01
35085;SHT85;21267;51.032;6.998;2023-02-01T16:56:32;8.27;79.18
35085;SHT85;21267;51.032;6.998;2023-02-01T16:59:02;8.26;79.33
35085;SHT85;21267;51.032;6.998;2023-02-01T17:01:30;8.23;79.80
35085;SHT85;21267;51.032;6.998;2023-02-01T17:03:58;8.14;80.15
35085;SHT85;21267;51.032;6.998;2023-02-01T17:06:26;8.10;80.39
35085;SHT85;21267;51.032;6.998;2023-02-01T17:08:55;8.10;80.61
35085;SHT85;21267;51.032;6.998;2023-02-01T17:11:25;8.14;80.51
35085;SHT85;21267;51.032;6.998;2023-02-01T17:13:53;8.12;80.74
35085;SHT85;21267;51.032;6.998;2023-02-01T17:16:26;8.10;81.04
35085;SHT85;21267;51.032;6.998;2023-02-01T17:19:01;8.04;81.21
35085;SHT85;21267;51.032;6.998;2023-02-01T17:21:44;8.06;81.10
35085;SHT85;21267;51.032;6.998;2023-02-01T17:24:13;8.00;81.29
35085;SHT85;21267;51.032;6.998;2023-02-01T17:26:41;8.09;80.95
35085;SHT85;21267;51.032;6.998;2023-02-01T17:29:08;8.09;80.93
35085;SHT85;21267;51.032;6.998;2023-02-01T17:31:38;8.12;81.00
35085;SHT85;21267;51.032;6.998;2023-02-01T17:34:05;8.09;81.01
35085;SHT85;21267;51.032;6.998;2023-02-01T17:36:36;8.02;81.21
35085;SHT85;21267;51.032;6.998;2023-02-01T17:39:05;8.12;81.14
35085;SHT85;21267;51.032;6.998;2023-02-01T17:41:33;8.00;81.42
35085;SHT85;21267;51.032;6.998;2023-02-01T17:44:14;8.04;81.24
35085;SHT85;21267;51.032;6.998;2023-02-01T17:46:41;8.06;81.28
35085;SHT85;21267;51.032;6.998;2023-02-01T17:49:08;8.06;81.22
35085;SHT85;21267;51.032;6.998;2023-02-01T17:51:48;8.09;81.21
35085;SHT85;21267;51.032;6.998;2023-02-01T17:54:17;8.02;81.26
35085;SHT85;21267;51.032;6.998;2023-02-01T17:57:01;8.07;81.05
35085;SHT85;21267;51.032;6.998;2023-02-01T17:59:29;8.09;81.07
35085;SHT85;21267;51.032;6.998;2023-02-01T18:02:20;8.03;81.35
35085;SHT85;21267;51.032;6.998;2023-02-01T18:05:01;8.07;81.25
35085;SHT85;21267;51.032;6.998;2023-02-01T18:07:28;8.06;81.44
35085;SHT85;21267;51.032;6.998;2023-02-01T18:10:09;7.99;81.60
35085;SHT85;21267;51.032;6.998;2023-02-01T18:12:36;7.90;81.84
35085;SHT85;21267;51.032;6.998;2023-02-01T18:15:22;7.93;81.64
35085;SHT85;21267;51.032;6.998;2023-02-01T18:17:49;7.97;81.66
35085;SHT85;21267;51.032;6.998;2023-02-01T18:20:30;8.06;81.17
35085;SHT85;21267;51.032;6.998;2023-02-01T18:22:57;8.04;81.11
35085;SHT85;21267;51.032;6.998;2023-02-01T18:25:29;7.97;81.64
35085;SHT85;21267;51.032;6.998;2023-02-01T18:27:59;7.86;82.28
35085;SHT85;21267;51.032;6.998;2023-02-01T18:30:30;7.81;82.57
35085;SHT85;21267;51.032;6.998;2023-02-01T18:33:16;7.86;82.45
35085;SHT85;21267;51.032;6.998;2023-02-01T18:35:43;7.90;82.44
35085;SHT85;21267;51.032;6.998;2023-02-01T18:38:24;7.86;82.85
35085;SHT85;21267;51.032;6.998;2023-02-01T18:40:53;7.90;82.60
35085;SHT85;21267;51.032;6.998;2023-02-01T18:43:33;7.85;82.78
35085;SHT85;21267;51.032;6.998;2023-02-01T18:46:00;7.83;82.86
35085;SHT85;21267;51.032;6.998;2023-02-01T18:48:41;7.85;82.85
35085;SHT85;21267;51.032;6.998;2023-02-01T18:51:15;7.86;82.76
35085;SHT85;21267;51.032;6.998;2023-02-01T18:53:52;7.89;82.67
35085;SHT85;21267;51.032;6.998;2023-02-01T18:58:40;7.86;82.38
35085;SHT85;21267;51.032;6.998;2023-02-01T19:01:07;7.81;82.56
35085;SHT85;21267;51.032;6.998;2023-02-01T19:03:40;7.93;82.33
35085;SHT85;21267;51.032;6.998;2023-02-01T19:06:11;7.89;82.17
35085;SHT85;21267;51.032;6.998;2023-02-01T19:08:40;7.90;82.14
35085;SHT85;21267;51.032;6.998;2023-02-01T19:11:08;7.97;81.95
35085;SHT85;21267;51.032;6.998;2023-02-01T19:13:38;7.97;81.80
35085;SHT85;21267;51.032;6.998;2023-02-01T19:16:08;7.94;81.76
35085;SHT85;21267;51.032;6.998;2023-02-01T19:18:36;7.93;81.68
35085;SHT85;21267;51.032;6.998;2023-02-01T19:21:07;7.96;81.78
35085;SHT85;21267;51.032;6.998;2023-02-01T19:23:37;7.97;81.64
35085;SHT85;21267;51.032;6.998;2023-02-01T19:26:18;8.02;81.44
35085;SHT85;21267;51.032;6.998;2023-02-01T19:28:58;7.99;81.45
35085;SHT85;21267;51.032;6.998;2023-02-01T19:31:40;8.00;81.42
35085;SHT85;21267;51.032;6.998;2023-02-01T19:34:09;8.03;81.32